createdAt,value
2022-09-29T00:01:48.297Z,7.56
2022-09-29T00:04:17.549Z,7.56
2022-09-29T00:06:46.783Z,7.56
2022-09-29T00:09:17.339Z,7.57
2022-09-29T00:11:46.403Z,7.58
2022-09-29T00:14:16.163Z,7.58
2022-09-29T00:16:45.342Z,7.58
2022-09-29T00:19:14.393Z,7.57
2022-09-29T00:21:43.748Z,7.58
2022-09-29T00:24:12.995Z,7.58
2022-09-29T00:26:46.772Z,7.58
2022-09-29T00:29:16.036Z,7.59
2022-09-29T00:31:45.278Z,7.60
2022-09-29T00:34:14.457Z,7.61
2022-09-29T00:36:43.848Z,7.61
2022-09-29T00:39:13.411Z,7.60
2022-09-29T00:41:44.106Z,7.61
2022-09-29T00:44:46.792Z,7.60
2022-09-29T00:47:19.398Z,7.60
2022-09-29T00:49:53.291Z,7.60
2022-09-29T00:52:27.695Z,7.60
2022-09-29T00:55:01.581Z,7.60
2022-09-29T00:57:36.129Z,7.61
2022-09-29T01:00:10.043Z,7.62
2022-09-29T01:02:42.193Z,7.62
2022-09-29T01:05:15.608Z,7.63
2022-09-29T01:07:46.360Z,7.63
2022-09-29T01:10:18.726Z,7.65
2022-09-29T01:12:50.573Z,7.66
2022-09-29T01:15:21.983Z,7.67
2022-09-29T01:17:51.264Z,7.69
2022-09-29T01:20:23.030Z,7.71
2022-09-29T01:23:27.044Z,7.72
2022-09-29T01:26:36.985Z,7.74
2022-09-29T01:29:55.046Z,7.75
2022-09-29T01:32:39.002Z,7.75
2022-09-29T01:35:15.824Z,7.74
2022-09-29T01:37:55.475Z,7.74
2022-09-29T01:40:32.139Z,7.74
2022-09-29T01:43:07.027Z,7.73
2022-09-29T01:45:39.833Z,7.74
2022-09-29T01:48:14.809Z,7.74
2022-09-29T01:50:47.688Z,7.74
2022-09-29T01:53:20.652Z,7.73
2022-09-29T01:55:54.368Z,7.72
2022-09-29T01:58:30.366Z,7.72
2022-09-29T02:01:05.670Z,7.71
2022-09-29T02:03:39.834Z,7.70
2022-09-29T02:06:14.381Z,7.70
2022-09-29T02:08:50.289Z,7.69
2022-09-29T02:11:19.875Z,7.68
2022-09-29T02:13:53.953Z,7.68
2022-09-29T02:16:28.756Z,7.68
2022-09-29T02:19:03.875Z,7.68
2022-09-29T02:21:34.240Z,7.68
2022-09-29T02:24:03.833Z,7.68
2022-09-29T02:26:35.442Z,7.68
2022-09-29T02:29:07.102Z,7.67
2022-09-29T02:31:37.542Z,7.67
2022-09-29T02:34:10.461Z,7.66
2022-09-29T02:36:48.861Z,7.65
2022-09-29T02:39:33.394Z,7.65
2022-09-29T02:42:16.875Z,7.65
2022-09-29T02:45:01.792Z,7.65
2022-09-29T02:47:47.435Z,7.64
2022-09-29T02:50:48.189Z,7.64
2022-09-29T02:53:30.522Z,7.64
2022-09-29T02:56:07.498Z,7.64
2022-09-29T02:58:42.996Z,7.65
2022-09-29T03:01:16.520Z,7.65
2022-09-29T03:03:45.850Z,7.67
2022-09-29T03:06:19.808Z,7.68
2022-09-29T03:08:48.755Z,7.69
2022-09-29T03:11:17.931Z,7.70
2022-09-29T03:13:46.891Z,7.72
2022-09-29T03:16:15.973Z,7.73
2022-09-29T03:18:45.261Z,7.74
2022-09-29T03:21:15.637Z,7.75
2022-09-29T03:23:44.649Z,7.77
2022-09-29T03:26:13.880Z,7.77
2022-09-29T03:28:42.945Z,7.78
2022-09-29T03:31:12.340Z,7.79
2022-09-29T03:33:42.014Z,7.80
2022-09-29T03:36:11.716Z,7.81
2022-09-29T03:38:41.894Z,7.81
2022-09-29T03:41:11.219Z,7.82
2022-09-29T03:43:40.208Z,7.81
2022-09-29T03:46:09.326Z,7.82
2022-09-29T03:48:39.305Z,7.81
2022-09-29T03:51:08.348Z,7.80
2022-09-29T03:53:37.878Z,7.80
2022-09-29T03:56:08.609Z,7.77
2022-09-29T03:58:37.783Z,7.77
2022-09-29T04:01:07.281Z,7.77
2022-09-29T04:03:36.375Z,7.75
2022-09-29T04:06:05.845Z,7.75
2022-09-29T04:08:37.051Z,7.75
2022-09-29T04:11:06.675Z,7.75
2022-09-29T04:13:37.469Z,7.75
2022-09-29T04:16:07.724Z,7.75
2022-09-29T04:18:37.411Z,7.76
2022-09-29T04:21:08.539Z,7.75
2022-09-29T04:23:38.495Z,7.77
2022-09-29T04:26:07.275Z,7.77
2022-09-29T04:28:38.622Z,7.77
2022-09-29T04:31:08.280Z,7.78
2022-09-29T04:33:39.228Z,7.78
2022-09-29T04:36:08.709Z,7.76
2022-09-29T04:38:37.851Z,7.77
2022-09-29T04:41:06.954Z,7.75
2022-09-29T04:43:37.553Z,7.74
2022-09-29T04:46:08.301Z,7.72
2022-09-29T04:48:38.122Z,7.70
2022-09-29T04:51:08.118Z,7.70
2022-09-29T04:53:37.369Z,7.68
2022-09-29T04:56:08.384Z,7.68
2022-09-29T04:58:38.968Z,7.67
2022-09-29T05:01:10.325Z,7.65
2022-09-29T05:03:39.546Z,7.64
2022-09-29T05:06:09.367Z,7.63
2022-09-29T05:08:38.845Z,7.64
2022-09-29T05:11:09.295Z,7.65
2022-09-29T05:13:40.074Z,7.67
2022-09-29T05:16:09.810Z,7.70
2022-09-29T05:18:38.875Z,7.70
2022-09-29T05:21:27.754Z,7.71
2022-09-29T05:23:57.883Z,7.72
2022-09-29T05:26:26.954Z,7.76
2022-09-29T05:28:57.321Z,7.79
2022-09-29T05:31:26.704Z,7.81
2022-09-29T05:33:57.583Z,7.81
2022-09-29T05:36:26.612Z,7.85
2022-09-29T05:38:56.291Z,7.87
2022-09-29T05:41:25.622Z,7.88
2022-09-29T05:43:57.297Z,7.91
2022-09-29T05:46:26.419Z,7.93
2022-09-29T05:48:55.552Z,7.96
2022-09-29T05:51:26.831Z,7.96
2022-09-29T05:53:56.506Z,7.97
2022-09-29T05:56:27.219Z,7.99
2022-09-29T05:58:58.004Z,8.03
2022-09-29T06:01:28.773Z,8.09
2022-09-29T06:03:58.008Z,8.11
2022-09-29T06:06:29.023Z,8.15
2022-09-29T06:08:59.982Z,8.18
2022-09-29T06:11:32.133Z,8.23
2022-09-29T06:14:03.890Z,8.28
2022-09-29T06:16:34.738Z,8.32
2022-09-29T06:19:05.345Z,8.36
2022-09-29T06:21:35.576Z,8.41
2022-09-29T06:24:07.222Z,8.45
2022-09-29T06:26:36.646Z,8.50
2022-09-29T06:29:07.547Z,8.55
2022-09-29T06:31:37.326Z,8.60
2022-09-29T06:34:06.488Z,8.64
2022-09-29T06:36:57.229Z,8.72
2022-09-29T06:39:26.679Z,8.78
2022-09-29T06:41:56.536Z,8.84
2022-09-29T06:44:30.713Z,8.90
2022-09-29T06:47:00.574Z,8.97
2022-09-29T06:49:29.341Z,9.03
2022-09-29T06:51:58.510Z,9.10
2022-09-29T06:54:27.973Z,9.18
2022-09-29T06:56:57.343Z,9.25
2022-09-29T06:59:27.680Z,9.33
2022-09-29T07:01:57.064Z,9.39
2022-09-29T07:04:26.636Z,9.48
2022-09-29T07:06:55.775Z,9.55
2022-09-29T07:09:24.977Z,9.60
2022-09-29T07:11:54.246Z,9.65
2022-09-29T07:14:25.602Z,9.70
2022-09-29T07:16:56.355Z,9.78
2022-09-29T07:19:25.459Z,9.82
2022-09-29T07:21:54.568Z,9.85
2022-09-29T07:24:25.031Z,9.85
2022-09-29T07:26:54.060Z,9.88
2022-09-29T07:29:23.390Z,9.90
2022-09-29T07:31:53.173Z,9.89
2022-09-29T07:34:24.920Z,9.91
2022-09-29T07:36:54.123Z,9.92
2022-09-29T07:39:23.556Z,9.94
2022-09-29T07:41:52.658Z,9.98
2022-09-29T07:44:22.039Z,10.04
2022-09-29T07:46:51.465Z,10.07
2022-09-29T07:49:20.518Z,10.14
2022-09-29T07:51:51.405Z,10.15
2022-09-29T07:54:21.869Z,10.23
2022-09-29T07:56:52.698Z,10.28
2022-09-29T07:59:21.871Z,10.32
2022-09-29T08:01:50.925Z,10.41
2022-09-29T08:04:20.706Z,10.47
2022-09-29T08:06:50.992Z,10.52
2022-09-29T08:09:21.010Z,10.59
2022-09-29T08:12:03.911Z,10.61
2022-09-29T08:14:35.766Z,10.66
2022-09-29T08:17:05.231Z,10.73
2022-09-29T08:19:34.325Z,10.76
2022-09-29T08:22:04.692Z,10.81
2022-09-29T08:24:36.035Z,10.84
2022-09-29T08:27:16.427Z,10.90
2022-09-29T08:29:48.316Z,10.92
2022-09-29T08:32:17.479Z,10.95
2022-09-29T08:34:46.753Z,11.01
2022-09-29T08:37:18.049Z,11.07
2022-09-29T08:39:46.968Z,11.08
2022-09-29T08:42:25.431Z,11.16
2022-09-29T08:45:11.652Z,11.20
2022-09-29T08:47:48.246Z,11.27
2022-09-29T08:50:26.911Z,11.30
2022-09-29T08:53:02.236Z,11.40
2022-09-29T08:55:41.928Z,11.51
2022-09-29T08:58:15.873Z,11.63
2022-09-29T09:00:52.345Z,11.65
2022-09-29T09:03:54.073Z,11.68
2022-09-29T09:06:31.386Z,11.69
2022-09-29T09:09:25.457Z,11.70
2022-09-29T09:12:22.304Z,11.72
2022-09-29T09:15:07.838Z,11.79
2022-09-29T09:17:55.657Z,11.77
2022-09-29T09:20:34.631Z,11.78
2022-09-29T09:23:10.504Z,11.79
2022-09-29T09:25:47.463Z,11.81
2022-09-29T09:28:19.997Z,11.85
2022-09-29T09:30:53.915Z,11.90
2022-09-29T09:33:31.948Z,11.94
2022-09-29T09:36:06.454Z,11.99
2022-09-29T09:38:50.216Z,12.12
2022-09-29T09:41:25.448Z,12.17
2022-09-29T09:43:59.404Z,12.21
2022-09-29T09:46:34.823Z,12.21
2022-09-29T09:49:13.133Z,12.23
2022-09-29T09:51:50.547Z,12.28
2022-09-29T09:54:29.411Z,12.32
2022-09-29T09:57:33.521Z,12.38
2022-09-29T10:00:11.792Z,12.41
2022-09-29T10:02:47.205Z,12.43
2022-09-29T10:05:18.165Z,12.48
2022-09-29T10:07:49.187Z,12.53
2022-09-29T10:10:21.740Z,12.57
2022-09-29T10:13:00.159Z,12.60
2022-09-29T10:15:35.077Z,12.64
2022-09-29T10:18:11.450Z,12.72
2022-09-29T10:20:42.865Z,12.75
2022-09-29T10:23:32.920Z,12.80
2022-09-29T10:26:14.118Z,12.84
2022-09-29T10:28:49.371Z,12.87
2022-09-29T10:31:24.990Z,12.91
2022-09-29T10:33:57.900Z,12.99
2022-09-29T10:36:31.154Z,13.09
2022-09-29T10:39:03.413Z,13.11
2022-09-29T10:41:54.363Z,13.19
2022-09-29T10:44:24.988Z,13.25
2022-09-29T10:46:57.090Z,13.29
2022-09-29T10:49:29.519Z,13.32
2022-09-29T10:52:18.368Z,13.36
2022-09-29T10:54:57.714Z,13.40
2022-09-29T10:57:30.131Z,13.45
2022-09-29T11:00:01.400Z,13.48
2022-09-29T11:02:35.252Z,13.53
2022-09-29T11:05:17.026Z,13.55
2022-09-29T11:07:48.347Z,13.58
2022-09-29T11:10:30.378Z,13.60
2022-09-29T11:13:01.143Z,13.62
2022-09-29T11:15:41.898Z,13.63
2022-09-29T11:18:22.528Z,13.63
2022-09-29T11:21:03.032Z,13.64
2022-09-29T11:23:36.654Z,13.67
2022-09-29T11:26:14.752Z,13.70
2022-09-29T11:29:03.697Z,13.74
2022-09-29T11:31:46.467Z,13.78
2022-09-29T11:34:43.187Z,13.84
2022-09-29T11:37:25.793Z,13.90
2022-09-29T11:40:05.501Z,13.97
2022-09-29T11:42:52.883Z,14.02
2022-09-29T11:45:25.866Z,14.07
2022-09-29T11:48:21.509Z,14.08
2022-09-29T11:51:01.385Z,14.08
2022-09-29T11:53:48.612Z,14.06
2022-09-29T11:56:31.813Z,14.06
2022-09-29T11:59:17.494Z,14.04
2022-09-29T12:02:00.257Z,14.05
2022-09-29T12:04:44.295Z,14.10
2022-09-29T12:07:33.245Z,14.15
2022-09-29T12:10:44.193Z,14.26
2022-09-29T12:13:23.531Z,14.34
2022-09-29T12:15:57.562Z,14.44
2022-09-29T12:18:32.330Z,14.52
2022-09-29T12:21:04.881Z,14.61
2022-09-29T12:23:37.977Z,14.69
2022-09-29T12:26:11.162Z,14.74
2022-09-29T12:28:47.563Z,14.79
2022-09-29T12:31:23.804Z,14.81
2022-09-29T12:33:56.855Z,14.84
2022-09-29T12:36:45.906Z,14.82
2022-09-29T12:39:30.470Z,14.84
2022-09-29T12:42:15.904Z,14.83
2022-09-29T12:44:55.084Z,14.83
2022-09-29T12:47:28.823Z,14.83
2022-09-29T12:50:06.881Z,14.86
2022-09-29T12:52:46.246Z,14.85
2022-09-29T12:55:26.074Z,14.84
2022-09-29T12:57:57.778Z,14.84
2022-09-29T13:00:29.396Z,14.85
2022-09-29T13:03:26.586Z,14.87
2022-09-29T13:06:21.159Z,14.88
2022-09-29T13:09:15.162Z,14.90
2022-09-29T13:12:16.196Z,14.91
2022-09-29T13:15:23.423Z,14.90
2022-09-29T13:18:21.655Z,14.92
2022-09-29T13:21:04.560Z,14.96
2022-09-29T13:24:02.455Z,15.07
2022-09-29T13:27:03.969Z,15.31
2022-09-29T13:29:40.689Z,15.63
2022-09-29T13:32:12.567Z,15.97
2022-09-29T13:34:47.812Z,16.31
2022-09-29T13:37:19.744Z,16.70
2022-09-29T13:40:01.512Z,17.07
2022-09-29T13:42:43.208Z,17.52
2022-09-29T13:45:44.786Z,17.97
2022-09-29T13:48:41.550Z,18.42
2022-09-29T13:51:51.986Z,18.93
2022-09-29T13:54:36.152Z,19.36
2022-09-29T13:57:31.072Z,19.86
2022-09-29T14:00:21.650Z,20.25
2022-09-29T14:03:15.701Z,20.67
2022-09-29T14:06:17.117Z,21.09
2022-09-29T14:08:56.066Z,21.50
2022-09-29T14:11:31.994Z,21.91
2022-09-29T14:14:07.086Z,22.27
2022-09-29T14:16:47.749Z,22.64
2022-09-29T14:19:35.753Z,23.02
2022-09-29T14:22:07.198Z,23.38
2022-09-29T14:24:50.563Z,23.69
2022-09-29T14:27:33.640Z,23.99
2022-09-29T14:30:16.597Z,24.24
2022-09-29T14:32:53.744Z,24.51
2022-09-29T14:35:30.206Z,24.72
2022-09-29T14:38:06.675Z,24.88
2022-09-29T14:40:36.126Z,25.07
2022-09-29T14:43:16.897Z,25.17
2022-09-29T14:46:26.588Z,25.17
2022-09-29T14:49:26.518Z,24.93
2022-09-29T14:52:02.418Z,24.65
2022-09-29T14:54:43.335Z,24.44
2022-09-29T14:57:38.066Z,24.26
2022-09-29T15:00:16.190Z,24.20
2022-09-29T15:02:55.555Z,24.20
2022-09-29T15:05:36.503Z,24.17
2022-09-29T15:08:27.356Z,24.21
2022-09-29T15:10:58.140Z,24.19
2022-09-29T15:13:31.441Z,24.22
2022-09-29T15:16:06.080Z,24.26
2022-09-29T15:18:58.453Z,24.28
2022-09-29T15:21:38.308Z,24.18
2022-09-29T15:24:33.448Z,24.04
2022-09-29T15:27:04.737Z,23.77
2022-09-29T15:29:34.082Z,23.47
2022-09-29T15:32:05.392Z,23.11
2022-09-29T15:34:40.667Z,22.80
2022-09-29T15:37:15.808Z,22.53
2022-09-29T15:39:49.090Z,22.19
2022-09-29T15:42:22.171Z,21.94
2022-09-29T15:44:59.921Z,21.69
2022-09-29T15:47:35.332Z,21.41
2022-09-29T15:50:18.602Z,21.10
2022-09-29T15:52:48.282Z,20.74
2022-09-29T15:55:19.622Z,20.39
2022-09-29T15:57:53.572Z,20.03
2022-09-29T16:00:46.472Z,19.61
2022-09-29T16:03:24.199Z,19.25
2022-09-29T16:06:05.786Z,18.89
2022-09-29T16:08:42.123Z,18.59
2022-09-29T16:11:21.734Z,18.29
2022-09-29T16:13:55.566Z,17.99
2022-09-29T16:16:31.617Z,17.71
2022-09-29T16:19:10.920Z,17.45
2022-09-29T16:21:42.112Z,17.18
2022-09-29T16:24:18.905Z,16.93
2022-09-29T16:26:52.157Z,16.69
2022-09-29T16:29:33.237Z,16.46
2022-09-29T16:32:19.170Z,16.24
2022-09-29T16:34:48.581Z,16.00
2022-09-29T16:37:20.054Z,15.72
2022-09-29T16:39:50.382Z,15.49
2022-09-29T16:42:21.616Z,15.29
2022-09-29T16:44:53.480Z,15.10
2022-09-29T16:47:27.334Z,14.93
2022-09-29T16:49:58.984Z,14.76
2022-09-29T16:52:33.809Z,14.59
2022-09-29T16:55:20.770Z,14.41
2022-09-29T16:57:55.595Z,14.25
2022-09-29T17:00:25.365Z,14.13
2022-09-29T17:02:55.697Z,13.96
2022-09-29T17:05:26.723Z,13.80
2022-09-29T17:08:03.632Z,13.65
2022-09-29T17:10:34.070Z,13.51
2022-09-29T17:13:03.533Z,13.39
2022-09-29T17:15:32.644Z,13.25
2022-09-29T17:18:02.060Z,13.14
2022-09-29T17:20:31.213Z,13.02
2022-09-29T17:23:02.207Z,12.90
2022-09-29T17:25:31.986Z,12.77
2022-09-29T17:28:12.735Z,12.65
2022-09-29T17:30:44.352Z,12.54
2022-09-29T17:33:16.190Z,12.42
2022-09-29T17:35:51.581Z,12.28
2022-09-29T17:38:27.847Z,12.16
2022-09-29T17:41:02.440Z,12.06
2022-09-29T17:43:34.847Z,11.98
2022-09-29T17:46:04.286Z,11.87
2022-09-29T17:48:34.383Z,11.76
2022-09-29T17:51:04.131Z,11.67
2022-09-29T17:53:34.918Z,11.58
2022-09-29T17:56:04.803Z,11.51
2022-09-29T17:58:34.081Z,11.43
2022-09-29T18:01:03.271Z,11.37
2022-09-29T18:03:39.700Z,11.29
2022-09-29T18:06:09.431Z,11.22
2022-09-29T18:08:39.767Z,11.15
2022-09-29T18:11:11.617Z,11.07
2022-09-29T18:13:40.879Z,10.98
2022-09-29T18:16:13.846Z,10.90
2022-09-29T18:18:43.359Z,10.82
2022-09-29T18:21:12.456Z,10.74
2022-09-29T18:23:44.264Z,10.67
2022-09-29T18:26:14.867Z,10.59
2022-09-29T18:28:48.535Z,10.51
2022-09-29T18:31:24.479Z,10.43
2022-09-29T18:33:55.181Z,10.35
2022-09-29T18:36:24.593Z,10.28
2022-09-29T18:38:54.984Z,10.19
2022-09-29T18:41:24.406Z,10.14
2022-09-29T18:43:56.146Z,10.09
2022-09-29T18:46:29.994Z,10.01
2022-09-29T18:49:01.175Z,9.95
2022-09-29T18:51:30.510Z,9.88
2022-09-29T18:54:00.887Z,9.83
2022-09-29T18:56:31.147Z,9.78
2022-09-29T18:59:00.401Z,9.72
2022-09-29T19:01:30.083Z,9.67
2022-09-29T19:03:59.792Z,9.64
2022-09-29T19:06:28.952Z,9.59
2022-09-29T19:08:59.889Z,9.56
2022-09-29T19:11:29.416Z,9.52
2022-09-29T19:13:59.597Z,9.46
2022-09-29T19:16:31.028Z,9.42
2022-09-29T19:19:00.651Z,9.37
2022-09-29T19:21:29.629Z,9.33
2022-09-29T19:24:00.225Z,9.29
2022-09-29T19:26:30.517Z,9.25
2022-09-29T19:29:02.327Z,9.23
2022-09-29T19:31:38.849Z,9.18
2022-09-29T19:34:07.932Z,9.13
2022-09-29T19:36:39.190Z,9.07
2022-09-29T19:39:12.019Z,9.03
2022-09-29T19:41:41.353Z,9.00
2022-09-29T19:44:10.776Z,8.96
2022-09-29T19:46:39.844Z,8.92
2022-09-29T19:49:09.090Z,8.89
2022-09-29T19:51:54.177Z,8.86
2022-09-29T19:54:27.449Z,8.83
2022-09-29T19:56:59.380Z,8.79
2022-09-29T19:59:32.347Z,8.75
2022-09-29T20:02:03.037Z,8.72
2022-09-29T20:04:34.895Z,8.65
2022-09-29T20:07:04.490Z,8.62
2022-09-29T20:09:36.077Z,8.56
2022-09-29T20:12:05.470Z,8.52
2022-09-29T20:14:35.717Z,8.49
2022-09-29T20:17:04.798Z,8.44
2022-09-29T20:19:34.061Z,8.40
2022-09-29T20:22:03.244Z,8.36
2022-09-29T20:24:32.241Z,8.32
2022-09-29T20:27:03.288Z,8.27
2022-09-29T20:29:32.556Z,8.23
2022-09-29T20:32:01.808Z,8.18
2022-09-29T20:34:32.436Z,8.15
2022-09-29T20:37:01.595Z,8.10
2022-09-29T20:39:31.752Z,8.04
2022-09-29T20:42:03.410Z,8.01
2022-09-29T20:44:32.660Z,7.97
2022-09-29T20:47:01.820Z,7.93
2022-09-29T20:49:30.866Z,7.88
2022-09-29T20:52:00.373Z,7.84
2022-09-29T20:54:29.673Z,7.80
2022-09-29T20:56:58.739Z,7.77
2022-09-29T20:59:32.526Z,7.73
2022-09-29T21:02:02.337Z,7.69
2022-09-29T21:04:31.864Z,7.65
2022-09-29T21:07:00.961Z,7.61
2022-09-29T21:09:30.160Z,7.58
2022-09-29T21:11:59.379Z,7.55
2022-09-29T21:14:30.100Z,7.51
2022-09-29T21:16:59.258Z,7.48
2022-09-29T21:19:28.985Z,7.44
2022-09-29T21:21:58.409Z,7.41
2022-09-29T21:24:27.961Z,7.38
2022-09-29T21:26:57.579Z,7.34
2022-09-29T21:29:28.680Z,7.31
2022-09-29T21:31:57.680Z,7.29
2022-09-29T21:34:27.125Z,7.25
2022-09-29T21:36:56.197Z,7.20
2022-09-29T21:39:25.346Z,7.16
2022-09-29T21:41:54.581Z,7.13
2022-09-29T21:44:24.835Z,7.08
2022-09-29T21:46:55.391Z,7.05
2022-09-29T21:49:24.692Z,7.02
2022-09-29T21:51:53.667Z,6.99
2022-09-29T21:54:25.170Z,6.96
2022-09-29T21:56:55.295Z,6.93
2022-09-29T21:59:24.331Z,6.89
2022-09-29T22:01:54.904Z,6.86
2022-09-29T22:04:24.512Z,6.82
2022-09-29T22:06:53.534Z,6.79
2022-09-29T22:09:23.430Z,6.76
2022-09-29T22:11:52.708Z,6.72
2022-09-29T22:14:24.444Z,6.68
2022-09-29T22:16:55.242Z,6.65
2022-09-29T22:19:25.198Z,6.61
2022-09-29T22:21:55.332Z,6.57
2022-09-29T22:24:26.760Z,6.53
2022-09-29T22:26:56.567Z,6.50
2022-09-29T22:29:25.915Z,6.47
2022-09-29T22:31:56.946Z,6.46
2022-09-29T22:34:26.437Z,6.44
2022-09-29T22:36:55.446Z,6.43
2022-09-29T22:39:24.408Z,6.41
2022-09-29T22:41:53.702Z,6.39
2022-09-29T22:44:22.678Z,6.37
2022-09-29T22:46:51.832Z,6.36
2022-09-29T22:49:22.951Z,6.35
2022-09-29T22:51:53.742Z,6.32
2022-09-29T22:54:23.118Z,6.32
2022-09-29T22:56:52.175Z,6.28
2022-09-29T22:59:21.698Z,6.26
2022-09-29T23:01:50.779Z,6.24
2022-09-29T23:04:21.348Z,6.20
2022-09-29T23:06:50.512Z,6.17
2022-09-29T23:09:19.866Z,6.15
2022-09-29T23:11:49.238Z,6.11
2022-09-29T23:14:18.396Z,6.10
2022-09-29T23:16:47.762Z,6.06
2022-09-29T23:19:17.337Z,6.06
2022-09-29T23:21:47.955Z,6.04
2022-09-29T23:24:17.289Z,6.03
2022-09-29T23:26:47.353Z,6.01
2022-09-29T23:29:16.399Z,6.01
2022-09-29T23:31:49.361Z,5.99
2022-09-29T23:34:20.350Z,5.98
2022-09-29T23:36:51.294Z,5.97
2022-09-29T23:39:19.636Z,5.97
2022-09-29T23:41:50.572Z,5.94
2022-09-29T23:44:22.350Z,5.93
2022-09-29T23:46:53.363Z,5.92
2022-09-29T23:49:24.800Z,5.90
2022-09-29T23:51:57.980Z,5.87
2022-09-29T23:54:29.370Z,5.85
2022-09-29T23:56:59.473Z,5.84
2022-09-29T23:59:28.904Z,5.82
